Time;durP1;ratioP1;P1;durP2;ratioP2;P2;SDS_P1;SDS_P2;PMS_P1;PMS_P2;Temp;Humidity;BMP_temperature;BMP_pressure;BME280_temperature;BME280_humidity;BME280_pressure;Samples;Min_cycle;Max_cycle;Signal;HPM_P1;HPM_P2
2022/02/24 00:00:26;;;;;;;6.45;2.60;;;18.00;57.00;;;;;;5010281;28;20028;-76
2022/02/24 00:02:53;;;;;;;5.90;2.20;;;18.00;57.10;;;;;;5026792;28;20026;-76
2022/02/24 00:05:19;;;;;;;9.00;2.35;;;18.00;57.10;;;;;;5031651;28;20034;-76
2022/02/24 00:07:44;;;;;;;7.15;2.13;;;17.90;57.10;;;;;;5029800;28;20090;-76
2022/02/24 00:10:12;;;;;;;8.05;2.63;;;17.90;57.10;;;;;;5031435;28;20057;-77
2022/02/24 00:12:39;;;;;;;6.72;2.72;;;17.90;57.10;;;;;;5031057;28;20469;-77
2022/02/24 00:15:06;;;;;;;11.38;3.30;;;17.90;57.10;;;;;;5031303;28;20093;-78
2022/02/24 00:17:32;;;;;;;7.00;1.88;;;17.80;57.00;;;;;;5012564;28;20052;-78
2022/02/24 00:19:58;;;;;;;7.75;2.30;;;17.80;57.10;;;;;;5011545;28;20389;-77
2022/02/24 00:22:25;;;;;;;6.68;2.15;;;17.80;57.10;;;;;;5010026;28;20029;-76
2022/02/24 00:24:51;;;;;;;7.15;2.10;;;17.80;57.10;;;;;;5010332;28;20021;-77
2022/02/24 00:27:17;;;;;;;8.60;2.53;;;17.70;57.10;;;;;;5011417;28;20042;-78
2022/02/24 00:29:43;;;;;;;8.55;2.22;;;17.70;57.10;;;;;;5011203;28;20018;-76
2022/02/24 00:32:09;;;;;;;8.27;3.25;;;17.70;57.10;;;;;;5011522;28;20030;-77
2022/02/24 00:34:35;;;;;;;8.65;2.50;;;17.70;57.10;;;;;;4993484;28;20029;-76
2022/02/24 00:37:02;;;;;;;8.20;2.05;;;17.70;57.10;;;;;;5029106;28;20030;-78
2022/02/24 00:39:28;;;;;;;9.60;2.80;;;17.70;57.20;;;;;;5030677;28;20481;-77
2022/02/24 00:41:54;;;;;;;6.93;2.22;;;17.60;57.10;;;;;;5031065;28;20025;-76
2022/02/24 00:44:20;;;;;;;6.03;1.85;;;17.60;57.20;;;;;;5031235;28;20033;-77
2022/02/24 00:46:46;;;;;;;8.15;2.38;;;17.60;57.20;;;;;;5029391;28;20049;-77
2022/02/24 00:49:12;;;;;;;9.02;2.30;;;17.60;57.20;;;;;;5030941;28;20026;-79
2022/02/24 00:51:38;;;;;;;7.43;2.42;;;17.60;57.20;;;;;;5030744;28;20134;-78
2022/02/24 00:54:05;;;;;;;9.35;2.85;;;17.60;57.20;;;;;;5013233;28;20022;-79
2022/02/24 00:56:31;;;;;;;10.38;2.33;;;17.50;57.20;;;;;;5013005;28;20025;-77
2022/02/24 00:58:56;;;;;;;5.15;2.10;;;17.50;57.20;;;;;;5030952;28;20104;-77
2022/02/24 01:01:22;;;;;;;6.47;1.92;;;17.50;57.30;;;;;;5023383;28;20065;-78
2022/02/24 01:03:48;;;;;;;4.22;1.88;;;17.40;57.20;;;;;;5010885;28;20014;-76
2022/02/24 01:06:14;;;;;;;5.10;2.13;;;17.40;57.30;;;;;;5010959;28;20049;-76
2022/02/24 01:08:39;;;;;;;4.68;1.88;;;17.40;57.20;;;;;;5010828;28;20076;-77
2022/02/24 01:11:05;;;;;;;6.47;2.00;;;17.40;57.30;;;;;;5011118;28;20037;-77
2022/02/24 01:13:31;;;;;;;4.93;2.10;;;17.40;57.30;;;;;;5010853;28;20457;-77
2022/02/24 01:15:57;;;;;;;6.88;2.35;;;17.40;57.30;;;;;;5010984;28;20026;-76
2022/02/24 01:18:22;;;;;;;9.45;2.47;;;17.30;57.30;;;;;;5011302;28;20026;-76
2022/02/24 01:20:48;;;;;;;7.30;2.47;;;17.40;57.30;;;;;;5010629;28;20026;-77
2022/02/24 01:23:14;;;;;;;8.13;1.92;;;17.30;57.40;;;;;;4993077;28;20036;-76
2022/02/24 01:25:40;;;;;;;8.20;2.00;;;17.30;57.40;;;;;;5010609;28;20113;-76
2022/02/24 01:28:06;;;;;;;6.05;2.47;;;17.30;57.30;;;;;;5010716;28;20026;-77
2022/02/24 01:30:32;;;;;;;5.97;1.90;;;17.30;57.40;;;;;;5010688;28;20030;-77
2022/02/24 01:32:58;;;;;;;6.38;2.75;;;17.30;57.40;;;;;;5010904;28;20417;-76
2022/02/24 01:35:24;;;;;;;7.55;2.17;;;17.20;57.40;;;;;;5015965;28;20052;-76
2022/02/24 01:37:51;;;;;;;9.82;2.63;;;17.20;57.40;;;;;;5034298;28;20112;-77
2022/02/24 01:40:17;;;;;;;6.85;2.30;;;17.20;57.40;;;;;;5034124;28;20033;-78
2022/02/24 01:42:44;;;;;;;7.43;2.30;;;17.20;57.40;;;;;;5033826;28;20034;-77
2022/02/24 01:45:11;;;;;;;6.93;2.50;;;17.20;57.40;;;;;;5033946;28;20096;-78
2022/02/24 01:47:37;;;;;;;8.18;1.90;;;17.20;57.50;;;;;;5033556;28;20539;-77
2022/02/24 01:50:04;;;;;;;6.97;2.08;;;17.10;57.40;;;;;;5033940;28;20413;-78
2022/02/24 01:52:30;;;;;;;7.45;2.55;;;17.10;57.40;;;;;;5033534;28;20029;-77
2022/02/24 01:54:56;;;;;;;7.03;2.03;;;17.10;57.50;;;;;;5033798;28;20022;-77
2022/02/24 01:57:22;;;;;;;8.45;2.53;;;17.10;57.50;;;;;;5034136;28;20026;-77
2022/02/24 01:59:49;;;;;;;8.38;2.63;;;17.10;57.50;;;;;;5033489;28;20025;-78
2022/02/24 02:02:14;;;;;;;5.43;1.90;;;17.10;57.50;;;;;;5015886;28;20030;-76
2022/02/24 02:04:41;;;;;;;7.28;2.38;;;17.00;57.50;;;;;;5015650;28;20025;-77
2022/02/24 02:07:07;;;;;;;7.65;2.25;;;17.00;58.00;;;;;;5032195;28;20136;-78
2022/02/24 02:09:34;;;;;;;8.50;2.60;;;17.00;57.50;;;;;;5033400;28;20105;-77
2022/02/24 02:11:59;;;;;;;6.78;2.10;;;17.00;57.50;;;;;;5033560;28;20025;-77
2022/02/24 02:14:25;;;;;;;8.48;2.53;;;17.00;57.50;;;;;;5015602;28;20028;-76
2022/02/24 02:16:52;;;;;;;6.20;2.53;;;17.00;57.50;;;;;;5033626;28;20025;-76
2022/02/24 02:19:18;;;;;;;6.43;1.90;;;17.00;57.50;;;;;;5033340;28;20097;-79
2022/02/24 02:21:45;;;;;;;5.30;1.88;;;17.00;57.50;;;;;;5031845;28;20514;-77
2022/02/24 02:24:10;;;;;;;7.82;1.63;;;16.90;57.50;;;;;;5032012;28;20026;-78
2022/02/24 02:26:36;;;;;;;5.78;1.88;;;17.00;57.50;;;;;;5032876;28;20087;-77
2022/02/24 02:29:05;;;;;;;6.82;1.75;;;16.90;57.50;;;;;;5033274;28;20040;-77
2022/02/24 02:31:31;;;;;;;6.13;1.80;;;16.90;57.50;;;;;;5032794;28;20021;-78
2022/02/24 02:34:12;;;;;;;6.53;2.28;;;16.90;57.60;;;;;;5033127;28;20025;-77
2022/02/24 02:36:39;;;;;;;5.90;1.70;;;16.90;57.50;;;;;;5029719;28;20037;-78
2022/02/24 02:39:08;;;;;;;5.82;1.88;;;16.90;57.50;;;;;;5031067;28;20061;-79
2022/02/24 02:41:35;;;;;;;6.00;1.88;;;16.90;57.50;;;;;;5031484;28;20057;-78
2022/02/24 02:44:01;;;;;;;8.35;2.33;;;16.90;57.50;;;;;;5032893;28;20022;-78
2022/02/24 02:46:27;;;;;;;7.38;2.05;;;16.90;57.50;;;;;;5032486;28;20040;-78
2022/02/24 02:48:54;;;;;;;6.10;2.10;;;16.90;57.50;;;;;;5031946;28;20017;-76
2022/02/24 02:51:20;;;;;;;7.28;2.63;;;16.90;57.50;;;;;;5031813;28;20025;-77
2022/02/24 02:53:45;;;;;;;6.25;2.58;;;16.90;57.50;;;;;;5014785;28;20405;-77
2022/02/24 02:56:12;;;;;;;5.20;1.83;;;16.90;57.50;;;;;;5017253;28;20030;-76
2022/02/24 02:58:38;;;;;;;6.82;1.88;;;16.90;57.50;;;;;;5012593;28;20084;-76
2022/02/24 03:01:04;;;;;;;7.78;1.75;;;16.90;57.50;;;;;;4995152;28;20030;-77
2022/02/24 03:03:31;;;;;;;5.35;1.30;;;16.90;57.40;;;;;;5012542;28;20509;-76
2022/02/24 03:05:57;;;;;;;6.32;1.63;;;16.90;57.40;;;;;;5012653;28;20029;-76
2022/02/24 03:08:23;;;;;;;6.47;1.85;;;16.90;57.40;;;;;;5012947;28;20037;-76
2022/02/24 03:10:51;;;;;;;6.78;2.00;;;16.90;57.40;;;;;;5012829;28;20014;-77
2022/02/24 03:13:17;;;;;;;6.15;1.83;;;16.90;57.40;;;;;;5012578;28;20029;-77
2022/02/24 03:15:43;;;;;;;5.20;1.50;;;16.90;57.40;;;;;;5012331;28;20417;-77
2022/02/24 03:18:10;;;;;;;6.15;2.00;;;16.80;57.30;;;;;;4994885;28;20030;-77
2022/02/24 03:20:36;;;;;;;4.88;1.52;;;16.90;57.30;;;;;;5012230;28;20405;-76
2022/02/24 03:23:08;;;;;;;8.15;1.83;;;16.90;57.30;;;;;;5012393;28;20032;-77
2022/02/24 03:25:34;;;;;;;7.72;2.40;;;16.90;57.30;;;;;;5010580;28;20398;-76
2022/02/24 03:28:00;;;;;;;9.43;1.95;;;16.90;57.30;;;;;;5012342;28;20386;-76
2022/02/24 03:30:27;;;;;;;8.95;1.83;;;16.90;57.20;;;;;;5012032;28;20030;-76
2022/02/24 03:32:53;;;;;;;4.90;1.63;;;16.90;57.20;;;;;;5012488;28;20032;-76
2022/02/24 03:35:20;;;;;;;4.80;1.40;;;16.90;57.20;;;;;;5020459;28;20036;-76
2022/02/24 03:37:46;;;;;;;6.22;2.22;;;16.80;57.20;;;;;;5031506;28;20034;-76
2022/02/24 03:40:14;;;;;;;3.90;1.52;;;16.90;57.20;;;;;;5031909;28;20485;-76
2022/02/24 03:42:40;;;;;;;6.03;1.75;;;16.90;57.20;;;;;;5031551;28;20026;-75
2022/02/24 03:45:07;;;;;;;4.60;1.55;;;16.90;57.10;;;;;;5031648;28;20029;-75
2022/02/24 03:47:33;;;;;;;5.43;1.40;;;16.90;57.10;;;;;;5031524;28;20036;-77
2022/02/24 03:49:58;;;;;;;5.35;1.33;;;16.90;57.10;;;;;;5012198;28;20401;-77
2022/02/24 03:52:24;;;;;;;6.03;1.58;;;16.90;57.10;;;;;;5026807;28;20036;-76
2022/02/24 03:54:50;;;;;;;5.65;1.80;;;16.90;57.10;;;;;;5012168;28;20460;-77
2022/02/24 03:57:17;;;;;;;4.63;1.73;;;16.90;57.10;;;;;;5011800;28;20095;-78
2022/02/24 03:59:43;;;;;;;5.90;1.38;;;16.90;57.10;;;;;;4993621;28;20018;-77
2022/02/24 04:02:09;;;;;;;6.00;2.00;;;16.90;57.00;;;;;;5011179;28;20061;-77
2022/02/24 04:04:35;;;;;;;3.42;0.98;;;16.90;57.00;;;;;;5011414;28;20022;-77
2022/02/24 04:07:01;;;;;;;4.18;1.15;;;16.90;57.00;;;;;;5010397;28;20108;-76
2022/02/24 04:09:27;;;;;;;5.85;1.55;;;16.90;57.00;;;;;;5011475;28;20117;-76
2022/02/24 04:11:53;;;;;;;5.07;1.17;;;16.90;57.00;;;;;;5011968;28;20037;-76
2022/02/24 04:14:19;;;;;;;3.78;1.10;;;16.90;56.90;;;;;;5029957;28;20026;-77
2022/02/24 04:16:45;;;;;;;5.28;1.00;;;16.90;56.90;;;;;;5031110;28;20029;-76
2022/02/24 04:19:10;;;;;;;4.20;0.90;;;16.90;56.90;;;;;;5031320;28;20531;-77
2022/02/24 04:21:36;;;;;;;5.60;1.15;;;16.90;56.90;;;;;;5030999;28;20029;-77
2022/02/24 04:24:02;;;;;;;4.50;1.00;;;16.90;56.90;;;;;;5031223;28;20017;-76
2022/02/24 04:26:28;;;;;;;4.15;1.13;;;16.90;56.90;;;;;;5005512;28;20045;-76
2022/02/24 04:28:54;;;;;;;4.53;1.70;;;16.90;56.80;;;;;;5031366;28;20021;-76
2022/02/24 04:31:19;;;;;;;3.95;1.10;;;16.90;56.80;;;;;;5031155;28;20093;-77
2022/02/24 04:33:45;;;;;;;5.30;1.52;;;16.90;56.80;;;;;;5031081;28;20018;-76
2022/02/24 04:36:11;;;;;;;5.85;1.67;;;16.90;56.80;;;;;;5031120;28;20109;-76
2022/02/24 04:38:37;;;;;;;4.38;1.25;;;16.90;56.80;;;;;;5030590;28;20064;-76
2022/02/24 04:41:03;;;;;;;4.50;1.38;;;16.90;56.80;;;;;;5031095;28;20489;-76
2022/02/24 04:43:28;;;;;;;4.82;1.33;;;16.90;56.80;;;;;;5020391;28;20026;-77
2022/02/24 04:45:54;;;;;;;4.20;1.10;;;16.90;56.70;;;;;;5011516;28;20462;-76
2022/02/24 04:48:21;;;;;;;6.82;1.58;;;16.90;56.70;;;;;;5011352;28;20030;-76
2022/02/24 04:50:47;;;;;;;6.88;1.35;;;16.90;56.70;;;;;;5011199;28;20025;-76
2022/02/24 04:53:13;;;;;;;4.38;1.10;;;16.90;56.70;;;;;;5011237;28;20076;-76
2022/02/24 04:55:39;;;;;;;4.25;1.30;;;16.90;56.60;;;;;;5010982;28;20413;-77
2022/02/24 04:58:05;;;;;;;3.90;0.90;;;16.90;56.60;;;;;;5011094;28;20030;-76
2022/02/24 05:00:31;;;;;;;4.30;1.15;;;16.90;56.60;;;;;;4993086;28;20026;-76
2022/02/24 05:02:56;;;;;;;3.83;1.20;;;16.90;56.60;;;;;;5009219;28;20034;-77
2022/02/24 05:05:22;;;;;;;6.45;1.48;;;17.00;56.60;;;;;;5011013;28;20022;-77
2022/02/24 05:07:48;;;;;;;3.85;1.20;;;17.00;56.60;;;;;;5011051;28;20069;-77
2022/02/24 05:10:14;;;;;;;6.57;1.70;;;16.90;56.60;;;;;;5011562;28;20025;-77
2022/02/24 05:12:40;;;;;;;4.05;1.38;;;16.90;57.10;;;;;;5014514;28;20030;-76
2022/02/24 05:15:06;;;;;;;5.07;1.48;;;16.90;56.50;;;;;;5014848;28;20036;-77
2022/02/24 05:17:33;;;;;;;4.60;1.38;;;16.90;56.50;;;;;;5014438;28;20026;-77
2022/02/24 05:20:00;;;;;;;4.85;1.10;;;17.00;56.50;;;;;;5014688;28;20022;-77
2022/02/24 05:22:26;;;;;;;5.53;1.73;;;16.90;56.50;;;;;;5012549;28;20033;-77
2022/02/24 05:24:51;;;;;;;3.38;1.08;;;16.90;56.50;;;;;;5034084;28;20096;-77
2022/02/24 05:27:18;;;;;;;4.28;1.30;;;16.90;56.50;;;;;;5033963;28;20091;-76
2022/02/24 05:29:43;;;;;;;4.80;1.45;;;16.90;56.40;;;;;;5016595;28;20025;-77
2022/02/24 05:32:09;;;;;;;4.70;1.23;;;17.00;56.50;;;;;;5034257;28;20519;-76
2022/02/24 05:34:35;;;;;;;5.97;1.20;;;16.90;56.40;;;;;;5033908;28;20039;-77
2022/02/24 05:37:01;;;;;;;5.45;1.50;;;17.00;56.50;;;;;;5016373;28;20080;-77
2022/02/24 05:39:27;;;;;;;6.10;1.60;;;16.90;56.40;;;;;;5015935;28;20042;-75
2022/02/24 05:41:53;;;;;;;5.90;1.40;;;16.90;56.40;;;;;;5032592;28;20034;-78
2022/02/24 05:44:19;;;;;;;3.05;1.25;;;16.90;56.40;;;;;;5033774;28;20104;-77
2022/02/24 05:46:45;;;;;;;4.00;1.50;;;16.90;56.40;;;;;;5033870;28;20454;-77
2022/02/24 05:49:16;;;;;;;7.03;1.85;;;16.90;56.40;;;;;;5020684;28;20068;-79
2022/02/24 05:51:42;;;;;;;4.40;1.30;;;16.90;56.40;;;;;;5014230;28;20022;-77
2022/02/24 05:54:08;;;;;;;5.40;1.40;;;16.90;56.40;;;;;;5014064;28;20110;-77
2022/02/24 05:56:34;;;;;;;6.05;1.38;;;17.00;56.40;;;;;;5013801;28;20025;-77
2022/02/24 05:59:00;;;;;;;4.63;1.42;;;17.00;56.50;;;;;;5014038;28;20437;-77
2022/02/24 06:01:26;;;;;;;6.28;1.52;;;17.00;56.40;;;;;;5021170;28;20044;-77
2022/02/24 06:03:52;;;;;;;4.40;1.20;;;17.00;56.40;;;;;;5013216;28;20029;-77
2022/02/24 06:06:18;;;;;;;8.90;2.33;;;17.00;56.40;;;;;;5033232;28;20148;-77
2022/02/24 06:08:44;;;;;;;3.83;1.30;;;17.00;56.40;;;;;;5033586;28;20397;-78
2022/02/24 06:11:10;;;;;;;4.28;1.27;;;17.10;56.40;;;;;;5007114;28;20502;-77
2022/02/24 06:13:35;;;;;;;3.75;1.08;;;17.10;56.40;;;;;;5013438;28;20105;-77
2022/02/24 06:16:01;;;;;;;4.93;1.25;;;17.10;56.40;;;;;;5013724;28;20034;-77
2022/02/24 06:18:27;;;;;;;6.45;1.73;;;17.10;56.40;;;;;;5016913;28;20401;-76
2022/02/24 06:20:52;;;;;;;6.72;1.80;;;17.20;56.40;;;;;;5013201;28;20057;-77
2022/02/24 06:23:18;;;;;;;6.13;1.90;;;17.10;56.40;;;;;;5013184;28;20108;-77
2022/02/24 06:25:44;;;;;;;5.55;1.48;;;17.20;56.40;;;;;;5021077;28;20087;-79
2022/02/24 06:28:10;;;;;;;4.20;1.27;;;17.20;56.40;;;;;;5033136;28;20029;-77
2022/02/24 06:30:35;;;;;;;5.55;2.10;;;17.20;56.40;;;;;;5029294;28;20044;-77
2022/02/24 06:33:03;;;;;;;6.15;1.42;;;17.30;56.40;;;;;;5028412;28;20096;-79
2022/02/24 06:35:29;;;;;;;5.15;1.42;;;17.30;56.40;;;;;;5015976;28;20026;-79
2022/02/24 06:37:54;;;;;;;5.97;1.52;;;17.30;56.40;;;;;;5013418;28;20048;-79
2022/02/24 06:40:21;;;;;;;5.63;1.65;;;17.30;56.40;;;;;;5013855;28;20026;-78
2022/02/24 06:42:47;;;;;;;3.53;1.17;;;17.40;56.40;;;;;;5013064;28;20058;-78
2022/02/24 06:45:13;;;;;;;4.90;1.30;;;17.40;56.30;;;;;;5014037;28;20045;-78
2022/02/24 06:47:38;;;;;;;5.18;1.30;;;17.40;56.30;;;;;;5012672;28;20482;-78
2022/02/24 06:50:05;;;;;;;4.00;1.25;;;17.40;56.30;;;;;;5021009;28;20017;-77
2022/02/24 06:52:31;;;;;;;5.40;1.40;;;17.40;56.30;;;;;;5032525;28;20021;-77
2022/02/24 06:54:57;;;;;;;5.30;1.70;;;17.50;56.40;;;;;;5033105;28;20084;-78
2022/02/24 06:57:23;;;;;;;6.35;1.83;;;17.50;56.50;;;;;;5021476;28;20061;-78
2022/02/24 06:59:48;;;;;;;5.25;1.65;;;17.50;56.50;;;;;;5012497;28;20072;-77
2022/02/24 07:02:14;;;;;;;6.45;2.40;;;17.50;56.50;;;;;;5012387;28;20018;-77
2022/02/24 07:04:39;;;;;;;5.88;1.83;;;17.60;56.60;;;;;;5013266;28;20030;-78
2022/02/24 07:07:05;;;;;;;5.80;1.73;;;17.60;56.70;;;;;;5005632;28;20045;-77
2022/02/24 07:09:31;;;;;;;6.70;1.92;;;17.60;56.70;;;;;;5013385;28;20378;-78
2022/02/24 07:11:57;;;;;;;7.03;1.70;;;17.60;56.80;;;;;;5012794;28;20390;-78
2022/02/24 07:14:23;;;;;;;6.22;1.80;;;17.70;56.80;;;;;;5012275;28;20029;-78
2022/02/24 07:16:49;;;;;;;6.05;1.77;;;17.70;56.80;;;;;;5012423;28;20041;-78
2022/02/24 07:19:15;;;;;;;9.27;2.05;;;17.70;56.90;;;;;;5013264;28;20110;-80
2022/02/24 07:21:41;;;;;;;5.80;1.85;;;17.70;56.90;;;;;;5025328;28;20075;-81
2022/02/24 07:24:07;;;;;;;5.10;1.35;;;17.70;57.00;;;;;;5026241;28;20026;-81
2022/02/24 07:26:33;;;;;;;5.18;1.42;;;17.70;57.00;;;;;;5011766;28;20171;-81
2022/02/24 07:28:59;;;;;;;8.10;1.77;;;17.70;57.00;;;;;;5011438;28;20030;-79
2022/02/24 07:31:24;;;;;;;6.13;2.20;;;17.70;57.10;;;;;;5012327;28;20029;-80
2022/02/24 07:33:50;;;;;;;7.45;1.83;;;17.70;57.00;;;;;;5011512;28;20025;-80
2022/02/24 07:36:16;;;;;;;7.85;2.13;;;17.70;57.00;;;;;;4997797;28;20041;-80
2022/02/24 07:38:43;;;;;;;6.93;1.90;;;17.70;56.90;;;;;;5011427;28;20029;-81
2022/02/24 07:41:09;;;;;;;5.90;1.50;;;17.70;56.90;;;;;;5011545;28;20030;-78
2022/02/24 07:43:36;;;;;;;9.65;2.38;;;17.70;56.90;;;;;;5011814;28;20025;-77
2022/02/24 07:46:02;;;;;;;7.88;1.52;;;17.70;56.80;;;;;;5011845;28;20030;-79
2022/02/24 07:48:27;;;;;;;6.50;1.63;;;17.70;56.80;;;;;;5010732;28;20057;-78
2022/02/24 07:50:54;;;;;;;8.98;2.97;;;17.70;56.80;;;;;;5012562;28;20030;-78
2022/02/24 07:53:20;;;;;;;6.90;2.40;;;17.70;56.70;;;;;;5011621;28;20033;-78
2022/02/24 07:55:45;;;;;;;11.75;2.88;;;17.70;56.70;;;;;;5011870;28;20034;-78
2022/02/24 07:58:11;;;;;;;10.68;3.28;;;17.70;56.70;;;;;;5026204;28;20113;-78
2022/02/24 08:00:37;;;;;;;7.40;3.83;;;17.70;56.70;;;;;;5011512;28;20478;-78
2022/02/24 08:03:03;;;;;;;8.02;3.17;;;17.70;56.70;;;;;;5011786;28;20018;-79
2022/02/24 08:05:28;;;;;;;14.68;3.45;;;17.70;56.70;;;;;;5011750;28;20026;-77
2022/02/24 08:07:54;;;;;;;8.95;3.47;;;17.70;56.80;;;;;;5011671;28;20038;-78
2022/02/24 08:10:20;;;;;;;8.90;3.13;;;17.70;57.00;;;;;;5011368;28;20064;-78
2022/02/24 08:12:47;;;;;;;8.65;3.15;;;17.70;57.00;;;;;;5011563;28;20501;-82
2022/02/24 08:15:21;;;;;;;12.82;3.63;;;17.70;57.00;;;;;;5011471;28;20018;-77
2022/02/24 08:17:48;;;;;;;18.20;3.85;;;17.70;57.10;;;;;;5013412;28;20022;-78
2022/02/24 08:20:14;;;;;;;10.35;3.72;;;17.70;57.10;;;;;;5017398;28;20034;-79
2022/02/24 08:22:43;;;;;;;11.35;3.45;;;17.70;57.30;;;;;;5011143;28;20042;-77
2022/02/24 08:25:12;;;;;;;8.00;2.65;;;17.60;57.30;;;;;;5011471;28;20030;-79
2022/02/24 08:27:39;;;;;;;11.70;3.25;;;17.60;57.30;;;;;;5010519;28;20034;-76
2022/02/24 08:30:12;;;;;;;8.55;3.20;;;17.60;57.30;;;;;;5011098;28;20382;-78
2022/02/24 08:32:39;;;;;;;10.63;3.35;;;17.60;57.30;;;;;;5011188;28;20022;-77
2022/02/24 08:35:07;;;;;;;8.02;2.60;;;17.60;57.30;;;;;;5011326;28;20049;-77
2022/02/24 08:37:33;;;;;;;8.00;2.50;;;17.60;57.30;;;;;;5016282;28;20041;-77
2022/02/24 08:39:59;;;;;;;7.00;2.80;;;17.60;57.30;;;;;;5031178;28;20425;-78
2022/02/24 08:42:27;;;;;;;8.65;2.78;;;17.60;57.20;;;;;;5030699;28;20026;-76
2022/02/24 08:44:54;;;;;;;12.65;2.88;;;17.50;57.10;;;;;;5032646;28;20022;-76
2022/02/24 08:47:20;;;;;;;8.13;3.05;;;17.50;57.10;;;;;;5034715;28;20495;-76
2022/02/24 08:49:46;;;;;;;7.20;2.47;;;17.50;57.10;;;;;;5035015;28;20117;-76
2022/02/24 08:52:12;;;;;;;7.20;2.85;;;17.50;57.10;;;;;;5035009;28;20021;-75
2022/02/24 08:54:39;;;;;;;8.07;2.95;;;17.40;57.00;;;;;;5034695;28;20442;-79
2022/02/24 08:57:05;;;;;;;8.48;2.63;;;17.40;57.00;;;;;;5034920;28;20049;-77
2022/02/24 08:59:31;;;;;;;9.55;2.90;;;17.40;56.90;;;;;;5034880;28;20025;-76
2022/02/24 09:01:57;;;;;;;7.38;2.33;;;17.40;56.90;;;;;;5035146;28;20473;-76
2022/02/24 09:04:23;;;;;;;8.25;2.90;;;17.40;56.90;;;;;;5034481;28;20030;-76
2022/02/24 09:06:49;;;;;;;7.95;2.70;;;17.50;56.90;;;;;;5034698;28;20048;-76
2022/02/24 09:09:16;;;;;;;8.02;2.25;;;17.40;56.80;;;;;;5034609;28;20156;-77
2022/02/24 09:11:42;;;;;;;7.32;2.53;;;17.40;56.80;;;;;;5034428;28;20052;-75
2022/02/24 09:14:08;;;;;;;6.43;2.28;;;17.40;56.80;;;;;;5034588;28;20025;-76
2022/02/24 09:16:34;;;;;;;7.47;2.55;;;17.40;56.80;;;;;;5034227;28;20043;-76
2022/02/24 09:19:00;;;;;;;9.73;2.25;;;17.40;56.80;;;;;;5016551;28;20466;-75
2022/02/24 09:21:25;;;;;;;6.20;1.95;;;17.40;56.70;;;;;;5019065;28;20080;-76
2022/02/24 09:23:51;;;;;;;10.60;2.58;;;17.40;56.70;;;;;;5021360;28;20088;-76
2022/02/24 09:26:17;;;;;;;9.45;2.65;;;17.30;56.70;;;;;;5014409;28;20037;-76
2022/02/24 09:28:42;;;;;;;6.30;2.15;;;17.30;56.60;;;;;;5014605;28;20056;-76
2022/02/24 09:31:08;;;;;;;5.30;2.20;;;17.30;56.60;;;;;;5014534;28;20021;-76
2022/02/24 09:33:34;;;;;;;8.55;2.45;;;17.30;56.60;;;;;;4997163;28;20370;-76
2022/02/24 09:36:00;;;;;;;4.72;2.00;;;17.30;56.60;;;;;;5030102;28;20036;-78
2022/02/24 09:38:26;;;;;;;7.15;2.17;;;17.30;56.60;;;;;;5018106;28;20512;-76
2022/02/24 09:40:54;;;;;;;6.97;2.25;;;17.30;56.50;;;;;;5014323;28;20393;-76
2022/02/24 09:43:23;;;;;;;8.10;1.98;;;17.30;56.50;;;;;;4996194;28;20117;-77
2022/02/24 09:45:49;;;;;;;7.97;2.60;;;17.30;56.50;;;;;;5000424;28;20048;-76
2022/02/24 09:48:19;;;;;;;9.88;2.25;;;17.30;56.50;;;;;;5001478;28;20097;-76
2022/02/24 09:50:51;;;;;;;6.15;1.80;;;17.30;56.50;;;;;;4994418;28;20019;-76
2022/02/24 09:53:17;;;;;;;6.60;2.15;;;17.30;56.50;;;;;;4994359;28;20027;-78
2022/02/24 09:55:43;;;;;;;6.40;2.00;;;17.30;56.50;;;;;;4995885;28;20451;-79
2022/02/24 09:58:09;;;;;;;7.78;2.33;;;17.20;56.40;;;;;;5033484;28;20100;-76
2022/02/24 10:00:37;;;;;;;6.88;1.98;;;17.20;56.40;;;;;;5032275;28;20112;-78
2022/02/24 10:03:22;;;;;;;9.43;2.50;;;17.30;56.40;;;;;;5033815;28;20026;-76
2022/02/24 10:05:48;;;;;;;6.43;2.37;;;17.30;56.40;;;;;;5027380;28;20500;-78
2022/02/24 10:08:13;;;;;;;7.70;2.13;;;17.30;56.40;;;;;;5012413;28;20277;-79
2022/02/24 10:10:40;;;;;;;7.70;2.13;;;17.30;56.40;;;;;;5012604;28;20101;-76
2022/02/24 10:13:08;;;;;;;6.28;1.88;;;17.20;56.40;;;;;;5013708;28;20497;-77
2022/02/24 10:15:36;;;;;;;5.47;1.90;;;17.30;56.40;;;;;;4999959;28;20037;-78
2022/02/24 10:18:16;;;;;;;6.32;1.95;;;17.30;56.30;;;;;;5032757;28;20030;-77
2022/02/24 10:20:49;;;;;;;5.75;1.83;;;17.30;56.30;;;;;;5033380;28;20017;-77
2022/02/24 10:23:17;;;;;;;5.80;1.90;;;17.30;56.30;;;;;;5031568;28;20065;-76
2022/02/24 10:25:44;;;;;;;6.18;2.30;;;17.30;56.30;;;;;;5033177;28;20021;-79
2022/02/24 10:28:49;;;;;;;7.45;2.13;;;17.30;56.30;;;;;;5030630;28;20030;-77
2022/02/24 10:31:16;;;;;;;7.28;2.45;;;17.30;56.40;;;;;;5011873;28;20124;-77
2022/02/24 10:33:44;;;;;;;8.73;1.73;;;17.30;56.40;;;;;;5013254;28;20038;-78
2022/02/24 10:36:20;;;;;;;6.55;1.98;;;17.30;56.30;;;;;;5013264;28;20596;-78
2022/02/24 10:38:59;;;;;;;;;;;17.30;56.30;;;;;;5017021;28;20124;-77
2022/02/24 10:41:34;;;;;;;7.05;2.30;;;17.20;56.30;;;;;;5012946;28;20359;-76
2022/02/24 10:44:12;;;;;;;4.68;1.48;;;17.20;56.30;;;;;;5014668;28;20474;-76
2022/02/24 10:46:37;;;;;;;9.43;1.90;;;17.20;56.40;;;;;;5015402;28;20037;-76
2022/02/24 10:49:03;;;;;;;4.22;1.45;;;17.20;56.40;;;;;;5021981;28;20033;-76
2022/02/24 10:51:34;;;;;;;7.60;2.25;;;17.20;56.50;;;;;;5013856;28;20100;-77
2022/02/24 10:54:03;;;;;;;8.88;1.85;;;17.20;56.50;;;;;;5013340;28;20030;-77
2022/02/24 10:56:29;;;;;;;5.00;1.83;;;17.20;56.50;;;;;;5012807;28;20029;-76
2022/02/24 10:58:55;;;;;;;7.25;1.42;;;17.20;56.60;;;;;;5012878;28;20026;-78
2022/02/24 11:01:24;;;;;;;17.70;1.70;;;17.20;56.70;;;;;;5012627;28;20080;-79
2022/02/24 11:03:52;;;;;;;7.63;1.75;;;17.30;56.80;;;;;;5012749;28;20077;-79
2022/02/24 11:06:20;;;;;;;8.90;1.70;;;17.40;56.80;;;;;;5012505;28;20160;-80
2022/02/24 11:08:46;;;;;;;7.90;1.80;;;17.50;56.70;;;;;;5011599;28;20022;-79
2022/02/24 11:11:24;;;;;;;9.60;1.60;;;17.50;56.60;;;;;;5013638;28;20057;-80
2022/02/24 11:13:50;;;;;;;6.90;1.42;;;17.50;56.50;;;;;;4993065;28;20026;-77
2022/02/24 11:16:17;;;;;;;6.22;1.55;;;17.50;56.60;;;;;;4992901;28;20049;-76
2022/02/24 11:18:43;;;;;;;6.20;1.35;;;17.50;56.60;;;;;;4992881;28;20031;-76
2022/02/24 11:21:15;;;;;;;10.23;2.30;;;17.50;56.60;;;;;;4992767;28;20455;-76
2022/02/24 11:23:47;;;;;;;7.03;2.47;;;17.50;56.70;;;;;;4975036;28;20073;-74
2022/02/24 11:26:21;;;;;;;5.75;1.73;;;17.50;56.90;;;;;;4992839;28;20455;-75
2022/02/24 11:28:58;;;;;;;7.80;2.10;;;17.60;57.00;;;;;;5003193;28;20080;-77
2022/02/24 11:31:30;;;;;;;7.97;1.80;;;17.70;57.00;;;;;;5010458;28;20395;-77
2022/02/24 11:33:56;;;;;;;10.88;2.22;;;17.80;57.10;;;;;;5011882;28;20038;-77
2022/02/24 11:36:22;;;;;;;11.00;1.60;;;17.80;57.10;;;;;;5015715;28;20030;-75
2022/02/24 11:39:17;;;;;;;5.32;1.65;;;17.90;57.20;;;;;;5012386;28;20029;-80
2022/02/24 11:41:45;;;;;;;17.33;2.88;;;18.00;57.10;;;;;;4993474;28;20025;-80
2022/02/24 11:44:41;;;;;;;7.60;1.77;;;18.00;57.20;;;;;;5010869;28;20033;-79
2022/02/24 11:47:10;;;;;;;11.60;1.40;;;18.10;57.30;;;;;;4989003;28;20418;-77
2022/02/24 11:50:07;;;;;;;7.50;1.77;;;18.20;57.40;;;;;;5007803;28;20109;-78
2022/02/24 11:52:46;;;;;;;7.10;1.70;;;18.20;57.60;;;;;;5010765;28;20522;-77
2022/02/24 11:55:41;;;;;;;7.50;1.48;;;18.30;57.60;;;;;;5010368;28;20028;-78
2022/02/24 11:58:38;;;;;;;7.53;1.80;;;18.40;57.70;;;;;;4997376;28;20029;-77
2022/02/24 12:01:16;;;;;;;4.03;1.20;;;18.50;57.70;;;;;;5010295;28;20101;-79
2022/02/24 12:03:44;;;;;;;3.45;1.50;;;18.60;57.70;;;;;;5011490;28;20029;-81
2022/02/24 12:06:18;;;;;;;13.38;5.75;;;18.70;57.70;;;;;;5011474;28;20022;-74
2022/02/24 12:09:03;;;;;;;12.93;4.80;;;;;;;;;;5011786;28;20462;-79
2022/02/24 12:11:30;;;;;;;13.65;5.07;;;;;;;;;;5011389;28;20068;-78
2022/02/24 12:13:56;;;;;;;13.43;5.03;;;;;;;;;;5011253;28;20042;-79
2022/02/24 12:16:24;;;;;;;10.55;5.00;;;;;;;;;;5010346;28;20478;-76
2022/02/24 12:18:53;;;;;;;11.95;5.43;;;;;;;;;;5010048;28;20029;-78
2022/02/24 12:21:35;;;;;;;10.82;5.07;;;;;;;;;;5011246;28;20049;-78
2022/02/24 12:24:23;;;;;;;13.35;4.50;;;;;;;;;;5011434;28;20122;-78
2022/02/24 12:26:50;;;;;;;10.15;4.20;;;;;;;;;;5010116;28;20029;-78
2022/02/24 12:29:26;;;;;;;6.93;3.58;;;;;;;;;;5011353;28;20440;-81
2022/02/24 12:31:59;;;;;;;11.23;4.28;;;;;;;;;;5010923;28;20029;-81
2022/02/24 12:34:29;;;;;;;8.60;4.60;;;;;;;;;;5010463;28;20080;-81
2022/02/24 12:37:05;;;;;;;9.48;4.30;;;;;;;;;;5010156;28;20054;-81
2022/02/24 12:39:34;;;;;;;10.65;4.70;;;;;;;;;;5011188;28;20129;-80
2022/02/24 12:42:04;;;;;;;9.45;3.78;;;;;;;;;;5013309;28;20034;-82
2022/02/24 12:44:31;;;;;;;7.82;3.15;;;;;;;;;;5009770;28;20018;-79
2022/02/24 12:46:57;;;;;;;7.15;3.55;;;;;;;;;;5011327;28;20038;-78
2022/02/24 12:49:23;;;;;;;7.43;3.33;;;;;;;;;;5011319;28;20426;-79
2022/02/24 12:51:49;;;;;;;9.00;3.38;;;;;;;;;;5011048;28;20524;-77
2022/02/24 12:54:16;;;;;;;7.20;2.55;;;;;;;;;;5009908;28;20018;-81